Time;durP1;ratioP1;P1;durP2;ratioP2;P2;SDS_P1;SDS_P2;PMS_P1;PMS_P2;Temp;Humidity;BMP_temperature;BMP_pressure;BME280_temperature;BME280_humidity;BME280_pressure;Samples;Min_cycle;Max_cycle;Signal;HPM_P1;HPM_P2
2022/07/06 00:01:37;;;;;;;1.30;1.20;;;23.40;62.50;;;;;;5069114;28;20032;-48
2022/07/06 00:04:03;;;;;;;1.25;1.15;;;23.40;62.40;;;;;;5074949;28;20126;-49
2022/07/06 00:06:30;;;;;;;1.30;1.20;;;23.40;62.30;;;;;;5086151;28;20020;-49
2022/07/06 00:08:56;;;;;;;1.37;1.27;;;23.40;62.20;;;;;;5079970;28;20024;-40
2022/07/06 00:11:22;;;;;;;1.38;1.27;;;23.30;62.20;;;;;;5076335;28;20484;-48
2022/07/06 00:13:48;;;;;;;1.60;1.38;;;23.30;61.80;;;;;;5081277;28;20067;-41
2022/07/06 00:16:14;;;;;;;1.35;1.17;;;23.30;62.00;;;;;;5081787;28;20111;-48
2022/07/06 00:18:40;;;;;;;1.50;1.40;;;23.30;61.30;;;;;;5081630;28;20047;-46
2022/07/06 00:21:06;;;;;;;6.57;1.88;;;23.30;61.10;;;;;;5081467;28;20024;-48
2022/07/06 00:23:32;;;;;;;1.85;1.50;;;23.30;61.60;;;;;;5082255;28;20028;-53
2022/07/06 00:25:59;;;;;;;3.88;1.65;;;23.30;61.50;;;;;;5104380;28;20362;-53
2022/07/06 00:28:25;;;;;;;4.28;1.35;;;23.30;61.70;;;;;;5088732;28;20040;-57
2022/07/06 00:30:52;;;;;;;2.22;1.65;;;23.30;61.40;;;;;;5085884;28;20024;-53
2022/07/06 00:33:19;;;;;;;3.30;1.55;;;23.30;61.70;;;;;;5083218;28;20036;-55
2022/07/06 00:35:45;;;;;;;2.17;1.30;;;23.30;62.00;;;;;;5085108;28;20092;-52
2022/07/06 00:38:11;;;;;;;2.35;1.50;;;23.20;62.00;;;;;;5086608;28;20066;-54
2022/07/06 00:40:37;;;;;;;1.60;1.00;;;23.20;70.80;;;;;;5087971;28;20040;-53
2022/07/06 00:43:03;;;;;;;1.38;1.17;;;23.20;62.20;;;;;;5081205;28;20108;-56
2022/07/06 00:45:29;;;;;;;1.23;1.13;;;23.20;62.60;;;;;;5087097;28;20025;-52
2022/07/06 00:47:55;;;;;;;2.55;1.20;;;23.20;62.20;;;;;;5082791;28;20029;-49
2022/07/06 00:50:22;;;;;;;1.73;1.33;;;23.20;62.00;;;;;;5089001;28;20020;-53
2022/07/06 00:52:52;;;;;;;3.95;1.42;;;23.20;61.40;;;;;;5071731;28;20049;-56
2022/07/06 00:55:22;;;;;;;4.25;1.42;;;23.20;61.10;;;;;;5089305;28;20028;-55
2022/07/06 00:57:49;;;;;;;3.03;1.20;;;23.10;60.80;;;;;;5093105;28;20041;-51
2022/07/06 01:00:16;;;;;;;3.10;1.40;;;23.10;61.40;;;;;;5087407;28;20016;-52
2022/07/06 01:02:42;;;;;;;2.08;1.30;;;23.10;61.80;;;;;;5085516;28;20059;-51
2022/07/06 01:05:09;;;;;;;2.72;1.20;;;23.10;62.20;;;;;;5067880;28;20096;-51
2022/07/06 01:07:36;;;;;;;1.50;1.40;;;23.10;62.30;;;;;;5083838;28;20073;-45
2022/07/06 01:10:03;;;;;;;1.65;1.30;;;23.10;61.90;;;;;;5086322;28;20020;-44
2022/07/06 01:12:30;;;;;;;2.25;1.75;;;23.00;62.10;;;;;;5082401;28;20065;-44
2022/07/06 01:14:56;;;;;;;5.88;2.20;;;23.00;62.80;;;;;;5065005;28;20679;-51
2022/07/06 01:17:22;;;;;;;4.32;1.90;;;23.00;63.50;;;;;;5075724;28;20045;-54
2022/07/06 01:19:49;;;;;;;14.85;7.45;;;23.00;63.70;;;;;;5082406;28;20025;-56
2022/07/06 01:22:15;;;;;;;14.57;8.52;;;23.00;63.60;;;;;;5081192;28;20032;-52
2022/07/06 01:24:41;;;;;;;15.43;9.55;;;23.00;63.50;;;;;;5080475;28;20127;-56
2022/07/06 01:27:10;;;;;;;26.95;18.30;;;23.00;63.00;;;;;;5083950;28;20050;-55
2022/07/06 01:29:36;;;;;;;28.55;18.10;;;23.00;63.00;;;;;;5083458;28;20029;-53
2022/07/06 01:32:02;;;;;;;28.55;19.08;;;23.00;63.30;;;;;;5082940;28;20031;-53
2022/07/06 01:34:29;;;;;;;40.37;22.57;;;23.00;63.00;;;;;;5080974;28;20033;-40
2022/07/06 01:36:55;;;;;;;32.35;21.38;;;23.00;63.20;;;;;;5085115;28;20177;-47
2022/07/06 01:39:21;;;;;;;27.05;19.80;;;23.00;63.00;;;;;;5077141;28;20020;-45
2022/07/06 01:41:47;;;;;;;28.40;19.67;;;23.00;62.50;;;;;;5080867;28;20038;-46
2022/07/06 01:44:13;;;;;;;27.65;18.27;;;23.00;62.20;;;;;;5082215;28;20048;-38
2022/07/06 01:46:39;;;;;;;20.90;15.00;;;23.00;61.80;;;;;;5083703;28;20020;-45
2022/07/06 01:49:06;;;;;;;22.65;15.80;;;23.00;61.60;;;;;;5083215;28;20036;-49
2022/07/06 01:51:32;;;;;;;23.93;16.30;;;23.00;61.30;;;;;;5082773;28;20032;-51
2022/07/06 01:53:58;;;;;;;30.33;19.67;;;23.00;61.10;;;;;;5081778;28;20078;-48
2022/07/06 01:56:24;;;;;;;34.20;23.02;;;23.00;60.90;;;;;;5080134;28;20120;-48
2022/07/06 01:58:50;;;;;;;35.47;22.35;;;23.00;61.50;;;;;;5081783;28;20032;-47
2022/07/06 02:01:19;;;;;;;36.58;23.48;;;23.00;60.50;;;;;;5075367;28;20020;-45
2022/07/06 02:03:45;;;;;;;34.17;22.40;;;23.00;60.40;;;;;;5066096;28;20024;-53
2022/07/06 02:06:14;;;;;;;35.47;23.05;;;23.00;60.30;;;;;;5082912;28;20062;-52
2022/07/06 02:08:41;;;;;;;34.28;22.60;;;23.00;60.30;;;;;;5083192;28;20028;-50
2022/07/06 02:11:07;;;;;;;33.65;20.98;;;23.00;60.40;;;;;;5081846;28;20092;-58
2022/07/06 02:13:34;;;;;;;28.17;19.03;;;23.00;60.30;;;;;;5078916;28;20034;-50
2022/07/06 02:16:20;;;;;;;28.27;18.58;;;22.90;60.10;;;;;;5080015;28;20029;-51
2022/07/06 02:18:46;;;;;;;27.15;17.38;;;22.90;59.90;;;;;;5019085;28;20046;-55
2022/07/06 02:21:12;;;;;;;24.67;16.85;;;22.90;59.80;;;;;;4999582;28;20038;-50
2022/07/06 02:23:39;;;;;;;25.27;16.38;;;22.90;59.70;;;;;;5017341;28;20080;-53
2022/07/06 02:26:05;;;;;;;22.83;15.73;;;22.90;59.70;;;;;;5018428;28;20483;-54
2022/07/06 02:28:31;;;;;;;22.23;14.63;;;22.90;59.60;;;;;;4996106;28;20042;-50
2022/07/06 02:30:58;;;;;;;21.30;13.90;;;22.90;59.60;;;;;;5014778;28;20042;-55
2022/07/06 02:33:24;;;;;;;19.73;13.10;;;22.90;59.50;;;;;;5013952;28;20041;-52
2022/07/06 02:35:50;;;;;;;20.58;12.85;;;22.80;59.40;;;;;;5013335;28;20092;-51
2022/07/06 02:38:16;;;;;;;16.60;11.82;;;22.80;59.40;;;;;;5012769;28;20034;-55
2022/07/06 02:40:42;;;;;;;16.27;11.32;;;22.80;59.40;;;;;;5015429;28;20137;-49
2022/07/06 02:43:09;;;;;;;16.65;10.88;;;22.80;60.50;;;;;;5015764;28;20121;-48
2022/07/06 02:45:35;;;;;;;15.60;10.90;;;22.80;61.50;;;;;;5014990;28;20102;-49
2022/07/06 02:48:01;;;;;;;14.90;10.27;;;22.80;62.00;;;;;;5010064;28;20042;-48
2022/07/06 02:50:27;;;;;;;13.73;9.38;;;22.80;64.10;;;;;;5013450;28;20037;-49
2022/07/06 02:52:54;;;;;;;12.65;8.85;;;22.80;65.30;;;;;;5016522;28;20089;-46
2022/07/06 02:55:20;;;;;;;;;;;22.70;66.10;;;;;;5033954;28;20037;-50
2022/07/06 02:57:46;;;;;;;10.32;7.72;;;22.70;66.00;;;;;;5079135;28;19928;-49
2022/07/06 03:00:13;;;;;;;10.23;7.53;;;22.70;59.40;;;;;;5079549;28;20020;-50
2022/07/06 03:02:39;;;;;;;10.80;7.32;;;22.60;59.30;;;;;;5079156;28;20031;-54
2022/07/06 03:05:06;;;;;;;9.77;6.95;;;22.60;59.30;;;;;;5079529;28;20032;-50
2022/07/06 03:07:32;;;;;;;8.18;6.18;;;22.60;59.30;;;;;;5078999;28;20031;-51
2022/07/06 03:09:58;;;;;;;9.55;6.68;;;22.60;59.40;;;;;;5079961;28;20032;-49
2022/07/06 03:12:24;;;;;;;8.07;6.03;;;22.60;59.30;;;;;;5078783;28;20025;-47
2022/07/06 03:14:50;;;;;;;9.57;6.03;;;22.50;59.40;;;;;;5080627;28;20025;-48
2022/07/06 03:17:16;;;;;;;7.07;5.32;;;22.50;59.30;;;;;;5079407;28;20055;-50
2022/07/06 03:19:43;;;;;;;7.00;5.47;;;22.50;59.30;;;;;;5071014;28;20773;-49
2022/07/06 03:22:09;;;;;;;6.20;4.70;;;22.40;59.30;;;;;;5073702;28;20043;-48
2022/07/06 03:24:35;;;;;;;6.05;4.57;;;22.40;59.30;;;;;;5070009;28;20125;-47
2022/07/06 03:27:01;;;;;;;6.07;4.57;;;22.40;59.30;;;;;;5073786;28;20040;-47
2022/07/06 03:29:27;;;;;;;5.20;4.35;;;22.40;59.30;;;;;;5076877;28;20028;-49
2022/07/06 03:31:53;;;;;;;5.03;3.97;;;22.40;59.30;;;;;;5069774;28;20151;-50
2022/07/06 03:34:20;;;;;;;4.50;3.75;;;22.40;59.30;;;;;;5074169;28;20073;-49
2022/07/06 03:36:46;;;;;;;6.45;3.67;;;22.30;59.30;;;;;;5075833;28;20476;-50
2022/07/06 03:39:12;;;;;;;4.35;3.60;;;22.30;59.30;;;;;;5074036;28;20039;-46
2022/07/06 03:41:38;;;;;;;3.75;3.20;;;22.30;59.30;;;;;;5073178;28;20044;-52
2022/07/06 03:44:04;;;;;;;3.72;2.92;;;22.30;59.30;;;;;;5074400;28;20037;-45
2022/07/06 03:46:31;;;;;;;3.70;3.22;;;22.30;59.30;;;;;;5072914;28;20028;-47
2022/07/06 03:48:57;;;;;;;3.25;2.78;;;22.30;59.30;;;;;;5080151;28;20064;-50
2022/07/06 03:51:23;;;;;;;3.70;3.03;;;22.20;59.30;;;;;;5079879;28;20042;-46
2022/07/06 03:53:49;;;;;;;3.05;2.55;;;22.20;59.30;;;;;;5079275;28;20040;-48
2022/07/06 03:56:28;;;;;;;2.80;2.42;;;22.20;59.30;;;;;;5090557;28;20033;-46
2022/07/06 03:58:55;;;;;;;2.75;2.42;;;22.20;59.30;;;;;;5097310;28;20103;-46
2022/07/06 04:01:21;;;;;;;2.80;2.47;;;22.20;59.30;;;;;;5084809;28;20035;-49
2022/07/06 04:03:47;;;;;;;2.83;2.25;;;22.10;59.20;;;;;;5082109;28;20036;-51
2022/07/06 04:06:13;;;;;;;2.70;2.30;;;22.10;59.20;;;;;;5084765;28;20024;-46
2022/07/06 04:08:40;;;;;;;2.50;2.20;;;22.10;59.20;;;;;;5085392;28;20118;-47
2022/07/06 04:11:06;;;;;;;2.55;2.03;;;22.10;59.30;;;;;;5084293;28;20021;-49
2022/07/06 04:13:32;;;;;;;2.30;1.95;;;22.10;59.30;;;;;;5085093;28;20032;-52
2022/07/06 04:15:58;;;;;;;1.98;1.88;;;22.00;59.30;;;;;;5082308;28;20032;-46
2022/07/06 04:18:24;;;;;;;2.53;1.88;;;22.00;59.30;;;;;;5082931;28;20028;-46
2022/07/06 04:20:50;;;;;;;2.83;1.70;;;22.00;59.30;;;;;;5083934;28;20040;-48
2022/07/06 04:23:17;;;;;;;1.90;1.73;;;22.00;59.30;;;;;;5084159;28;20028;-49
2022/07/06 04:25:43;;;;;;;1.77;1.67;;;22.00;59.40;;;;;;5079069;28;20028;-48
2022/07/06 04:28:09;;;;;;;2.05;1.80;;;21.90;59.40;;;;;;5084547;28;20071;-51
2022/07/06 04:30:35;;;;;;;1.70;1.60;;;21.90;59.40;;;;;;5084307;28;20028;-53
2022/07/06 04:33:01;;;;;;;2.03;1.83;;;21.90;59.40;;;;;;5079599;28;20059;-51
2022/07/06 04:35:27;;;;;;;1.88;1.50;;;21.90;59.50;;;;;;5084009;28;20024;-52
2022/07/06 04:37:53;;;;;;;1.73;1.40;;;21.90;59.40;;;;;;5085376;28;20060;-47
2022/07/06 04:40:19;;;;;;;1.50;1.40;;;21.80;59.40;;;;;;5080272;28;20050;-41
2022/07/06 04:42:46;;;;;;;1.50;1.40;;;21.80;59.40;;;;;;5081431;28;20897;-46
2022/07/06 04:45:12;;;;;;;1.60;1.50;;;21.80;59.40;;;;;;5083255;28;20044;-53
2022/07/06 04:47:38;;;;;;;3.05;1.75;;;21.80;59.40;;;;;;5084102;28;20047;-53
2022/07/06 04:50:05;;;;;;;1.80;1.10;;;21.80;59.40;;;;;;5087185;28;20041;-49
2022/07/06 04:52:31;;;;;;;1.50;1.33;;;21.70;59.40;;;;;;5083726;28;20101;-49
2022/07/06 04:55:17;;;;;;;1.30;1.20;;;21.70;59.40;;;;;;5080755;28;20095;-48
2022/07/06 04:57:43;;;;;;;1.33;1.23;;;21.70;60.00;;;;;;5019416;28;20053;-50
2022/07/06 05:00:10;;;;;;;1.48;1.38;;;21.70;59.40;;;;;;5017523;28;20030;-50
2022/07/06 05:02:36;;;;;;;1.40;1.30;;;21.60;59.40;;;;;;5023649;28;20077;-48
2022/07/06 05:05:03;;;;;;;1.58;1.23;;;21.60;59.40;;;;;;5005618;28;20986;-55
2022/07/06 05:07:30;;;;;;;1.50;1.40;;;21.60;59.40;;;;;;5019141;28;20030;-52
2022/07/06 05:09:57;;;;;;;1.23;1.10;;;21.60;59.40;;;;;;5018178;28;20034;-54
2022/07/06 05:12:23;;;;;;;1.30;1.20;;;21.60;59.40;;;;;;5019572;28;20067;-58
2022/07/06 05:14:49;;;;;;;1.30;1.20;;;21.60;59.50;;;;;;5020167;28;20041;-49
2022/07/06 05:17:15;;;;;;;1.20;1.10;;;21.50;59.40;;;;;;5020225;28;20037;-48
2022/07/06 05:19:41;;;;;;;1.27;1.17;;;21.50;59.40;;;;;;5020590;28;20049;-49
2022/07/06 05:22:07;;;;;;;1.35;1.20;;;21.50;59.50;;;;;;5019127;28;20108;-49
2022/07/06 05:24:34;;;;;;;2.05;1.20;;;21.50;59.50;;;;;;5020304;28;20033;-52
2022/07/06 05:27:00;;;;;;;1.38;1.27;;;21.50;59.50;;;;;;5019814;28;20038;-50
2022/07/06 05:29:26;;;;;;;1.58;1.10;;;21.50;59.50;;;;;;5020599;28;20029;-48
2022/07/06 05:31:52;;;;;;;1.17;1.08;;;21.40;59.50;;;;;;5003117;28;20812;-48
2022/07/06 05:34:18;;;;;;;1.20;1.10;;;21.40;59.50;;;;;;5037116;28;20032;-51
2022/07/06 05:36:44;;;;;;;1.20;1.10;;;21.40;59.50;;;;;;5083615;28;20033;-45
2022/07/06 05:39:10;;;;;;;1.40;1.30;;;21.40;59.50;;;;;;5082108;28;20036;-44
2022/07/06 05:41:36;;;;;;;1.20;1.10;;;21.40;59.60;;;;;;5080055;28;20853;-46
2022/07/06 05:44:02;;;;;;;2.00;1.20;;;21.30;59.60;;;;;;5079776;28;20147;-47
2022/07/06 05:46:28;;;;;;;0.88;0.88;;;21.30;59.60;;;;;;5079995;28;20028;-46
2022/07/06 05:51:39;;;;;;;1.17;1.08;;;21.30;59.60;;;;;;5083580;28;20062;-47
2022/07/06 05:54:05;;;;;;;1.20;1.10;;;21.30;59.60;;;;;;5080654;28;20569;-44
2022/07/06 05:56:31;;;;;;;1.10;1.00;;;21.20;59.50;;;;;;5082118;28;20075;-45
2022/07/06 05:58:57;;;;;;;2.35;1.10;;;21.20;59.50;;;;;;5081801;28;20028;-46
2022/07/06 06:01:23;;;;;;;1.00;1.00;;;21.20;59.50;;;;;;5075364;28;20507;-46
2022/07/06 06:03:50;;;;;;;1.40;0.90;;;21.20;59.50;;;;;;5080019;28;20025;-44
2022/07/06 06:06:16;;;;;;;1.20;1.10;;;21.20;59.50;;;;;;5079480;28;20035;-47
2022/07/06 06:08:42;;;;;;;1.35;1.08;;;21.20;59.50;;;;;;5079930;28;20445;-47
2022/07/06 06:11:08;;;;;;;0.90;0.90;;;21.20;59.50;;;;;;5079786;28;20037;-45
2022/07/06 06:13:34;;;;;;;1.00;1.00;;;21.10;59.50;;;;;;5081520;28;20025;-46
2022/07/06 06:16:00;;;;;;;1.20;1.10;;;21.10;59.60;;;;;;5077694;28;20052;-48
2022/07/06 06:18:26;;;;;;;1.20;1.10;;;21.10;59.60;;;;;;5079105;28;20711;-45
2022/07/06 06:20:53;;;;;;;1.20;1.10;;;21.10;59.50;;;;;;5080620;28;20032;-45
2022/07/06 06:23:19;;;;;;;0.87;0.80;;;21.00;59.50;;;;;;5076558;28;20028;-46
2022/07/06 06:25:45;;;;;;;1.13;1.02;;;21.00;59.50;;;;;;5080073;28;20055;-45
2022/07/06 06:28:11;;;;;;;1.15;1.00;;;21.00;59.50;;;;;;5081169;28;20032;-46
2022/07/06 06:30:38;;;;;;;1.08;1.00;;;21.00;59.50;;;;;;5080691;28;20120;-46
2022/07/06 06:33:09;;;;;;;1.30;1.10;;;21.00;59.60;;;;;;5079469;28;20036;-45
2022/07/06 06:35:35;;;;;;;1.23;1.13;;;21.00;59.70;;;;;;5080935;28;20101;-45
2022/07/06 06:38:01;;;;;;;0.82;0.70;;;20.90;59.60;;;;;;5081743;28;20062;-47
2022/07/06 06:40:27;;;;;;;1.38;1.00;;;20.90;59.60;;;;;;5079780;28;20115;-46
2022/07/06 06:42:54;;;;;;;1.13;1.00;;;20.90;59.60;;;;;;5071738;28;20032;-47
2022/07/06 06:45:20;;;;;;;1.17;1.08;;;20.90;59.60;;;;;;5076818;28;20120;-44
2022/07/06 06:47:46;;;;;;;1.15;1.00;;;20.90;59.60;;;;;;5079762;28;20029;-46
2022/07/06 06:50:12;;;;;;;0.95;0.95;;;20.90;59.70;;;;;;5079482;28;20040;-44
2022/07/06 06:52:38;;;;;;;1.10;1.00;;;20.80;59.60;;;;;;5071870;28;20033;-49
2022/07/06 06:55:04;;;;;;;1.20;1.10;;;20.80;59.60;;;;;;5077344;28;20024;-46
2022/07/06 06:57:30;;;;;;;1.25;1.15;;;20.80;59.60;;;;;;5079097;28;20036;-47
2022/07/06 06:59:57;;;;;;;1.08;1.00;;;20.80;59.60;;;;;;5081978;28;20051;-48
2022/07/06 07:02:23;;;;;;;1.08;0.70;;;20.80;59.70;;;;;;5078003;28;20032;-47
2022/07/06 07:04:49;;;;;;;1.02;0.90;;;20.70;59.60;;;;;;5079958;28;20047;-45
2022/07/06 07:07:15;;;;;;;1.10;1.00;;;20.70;59.70;;;;;;5078949;28;20061;-44
2022/07/06 07:09:42;;;;;;;1.00;1.00;;;20.70;59.70;;;;;;5077033;28;20033;-46
2022/07/06 07:12:08;;;;;;;1.13;1.02;;;20.70;59.70;;;;;;5081141;28;20105;-47
2022/07/06 07:14:34;;;;;;;1.30;1.10;;;20.70;59.70;;;;;;5082191;28;20028;-47
2022/07/06 07:17:00;;;;;;;1.00;1.00;;;20.60;59.70;;;;;;5073529;28;20056;-44
2022/07/06 07:19:26;;;;;;;1.30;1.20;;;20.60;59.70;;;;;;5081408;28;20031;-45
2022/07/06 07:21:52;;;;;;;1.00;1.00;;;20.60;59.80;;;;;;5080211;28;20031;-44
2022/07/06 07:24:18;;;;;;;1.20;1.00;;;20.60;59.80;;;;;;5080019;28;20509;-44
2022/07/06 07:26:44;;;;;;;1.05;0.95;;;20.60;59.80;;;;;;5081436;28;20027;-45
2022/07/06 07:29:11;;;;;;;1.10;1.00;;;20.50;59.70;;;;;;5078817;28;20089;-46
2022/07/06 07:31:37;;;;;;;0.90;0.90;;;20.50;59.80;;;;;;5076950;28;20025;-45
2022/07/06 07:34:03;;;;;;;1.20;1.08;;;20.50;59.80;;;;;;5078040;28;20028;-47
2022/07/06 07:36:29;;;;;;;1.10;1.00;;;20.50;59.80;;;;;;5079309;28;20040;-50
2022/07/06 07:38:55;;;;;;;1.60;1.02;;;20.50;60.30;;;;;;5079050;28;20024;-50
2022/07/06 07:41:21;;;;;;;0.93;0.90;;;20.40;59.80;;;;;;5082213;28;20035;-51
2022/07/06 07:43:48;;;;;;;1.02;1.00;;;20.40;59.80;;;;;;5081805;28;20036;-50
2022/07/06 07:46:14;;;;;;;1.40;0.93;;;20.40;59.80;;;;;;5079825;28;20039;-47
2022/07/06 07:48:40;;;;;;;1.05;0.85;;;20.40;59.80;;;;;;5070999;28;20024;-47
2022/07/06 07:51:06;;;;;;;0.88;0.80;;;20.40;59.80;;;;;;5065396;28;20198;-50
2022/07/06 07:53:32;;;;;;;1.17;1.08;;;20.30;59.80;;;;;;5064086;28;20040;-49
2022/07/06 07:55:58;;;;;;;1.08;0.80;;;20.30;59.80;;;;;;5067381;28;20040;-47
2022/07/06 07:58:24;;;;;;;1.50;1.05;;;20.40;59.90;;;;;;5063664;28;20056;-60
2022/07/06 08:00:50;;;;;;;1.20;0.90;;;20.30;59.90;;;;;;5065368;28;20519;-49
2022/07/06 08:03:17;;;;;;;1.90;0.88;;;20.30;60.00;;;;;;5063108;28;20044;-53
2022/07/06 08:05:43;;;;;;;1.13;1.02;;;20.30;60.00;;;;;;5063055;28;20025;-63
2022/07/06 08:08:09;;;;;;;0.95;0.90;;;20.30;60.00;;;;;;5067405;28;20040;-41
2022/07/06 08:10:35;;;;;;;1.10;1.00;;;20.20;60.10;;;;;;5064356;28;20108;-53
2022/07/06 08:13:01;;;;;;;1.40;1.10;;;20.20;60.10;;;;;;5065936;28;20044;-44
2022/07/06 08:15:27;;;;;;;1.05;0.93;;;20.20;60.00;;;;;;5065424;28;20031;-38
2022/07/06 08:17:54;;;;;;;1.38;1.27;;;20.20;60.10;;;;;;5067695;28;20047;-47
2022/07/06 08:20:20;;;;;;;1.10;1.00;;;20.20;60.10;;;;;;5076530;28;20354;-46
2022/07/06 08:22:46;;;;;;;2.83;1.23;;;20.10;60.00;;;;;;5076234;28;20031;-44
2022/07/06 08:25:12;;;;;;;1.00;0.95;;;20.10;60.00;;;;;;5079929;28;20108;-48
2022/07/06 08:27:38;;;;;;;1.45;0.98;;;20.10;60.00;;;;;;5079852;28;20057;-55
2022/07/06 08:30:05;;;;;;;14.23;1.70;;;20.10;60.10;;;;;;5078997;28;20101;-56
2022/07/06 08:32:31;;;;;;;2.40;1.10;;;20.10;60.30;;;;;;5077144;28;20032;-46
2022/07/06 08:34:57;;;;;;;2.72;1.30;;;20.00;60.20;;;;;;5081818;28;20031;-62
2022/07/06 08:37:23;;;;;;;5.50;1.67;;;20.00;60.10;;;;;;5078581;28;20039;-62
2022/07/06 08:39:49;;;;;;;1.60;1.20;;;20.00;60.10;;;;;;5081373;28;20396;-60
2022/07/06 08:42:16;;;;;;;1.20;1.10;;;20.00;60.00;;;;;;5079720;28;20041;-60
2022/07/06 08:44:42;;;;;;;1.23;1.13;;;20.00;59.90;;;;;;5079211;28;20060;-61
2022/07/06 08:47:08;;;;;;;1.30;0.93;;;20.00;60.00;;;;;;5079340;28;20064;-63
2022/07/06 08:49:35;;;;;;;1.02;0.93;;;20.00;59.90;;;;;;5072792;28;20092;-61
2022/07/06 08:52:02;;;;;;;1.17;1.08;;;19.90;59.90;;;;;;5075150;28;20043;-61
2022/07/06 08:54:28;;;;;;;;;;;19.90;59.80;;;;;;5077575;28;20051;-59
2022/07/06 08:56:54;;;;;;;1.20;1.10;;;19.90;59.80;;;;;;5078365;28;19915;-59
2022/07/06 08:59:20;;;;;;;1.23;1.13;;;19.90;59.80;;;;;;5070454;28;20435;-59
2022/07/06 09:01:49;;;;;;;1.13;0.80;;;19.90;59.80;;;;;;5076600;28;20028;-59
2022/07/06 09:04:16;;;;;;;1.17;1.02;;;19.80;59.80;;;;;;5077685;28;20560;-62
2022/07/06 09:06:43;;;;;;;;;;;19.80;59.80;;;;;;5075010;28;20123;-69
2022/07/06 09:09:09;;;;;;;1.20;1.10;;;19.80;59.80;;;;;;5074225;28;19923;-61
2022/07/06 09:11:35;;;;;;;1.17;1.08;;;19.80;59.80;;;;;;5074171;28;20037;-59
2022/07/06 09:14:02;;;;;;;1.10;1.00;;;19.80;59.90;;;;;;5076919;28;20028;-59
2022/07/06 09:16:29;;;;;;;0.90;0.90;;;19.70;59.90;;;;;;5069459;28;20131;-60
2022/07/06 09:18:55;;;;;;;1.20;1.05;;;19.70;59.90;;;;;;5083365;28;20033;-60
2022/07/06 09:21:36;;;;;;;1.30;1.20;;;19.70;59.90;;;;;;5082956;28;20037;-58
2022/07/06 09:24:06;;;;;;;0.95;0.90;;;19.70;60.00;;;;;;5078857;28;20044;-61
2022/07/06 09:26:32;;;;;;;1.40;1.20;;;19.60;59.90;;;;;;5083008;28;20092;-61
2022/07/06 09:29:01;;;;;;;1.00;1.00;;;19.60;60.00;;;;;;5082307;28;20350;-61
2022/07/06 09:31:27;;;;;;;1.48;1.23;;;19.60;60.10;;;;;;5079781;28;20036;-63
2022/07/06 09:33:57;;;;;;;1.10;1.00;;;19.60;60.10;;;;;;5082293;28;20035;-62
2022/07/06 09:36:39;;;;;;;1.15;1.05;;;19.60;60.00;;;;;;5082045;28;20024;-61
2022/07/06 09:39:23;;;;;;;1.30;1.10;;;19.50;60.00;;;;;;5082152;28;20034;-59
2022/07/06 09:41:50;;;;;;;1.30;1.10;;;19.50;60.10;;;;;;5079642;28;20028;-61
2022/07/06 09:44:41;;;;;;;1.10;1.00;;;19.50;60.10;;;;;;5081241;28;20100;-61
2022/07/06 09:47:09;;;;;;;1.10;1.00;;;19.50;60.10;;;;;;5080045;28;20035;-61
2022/07/06 09:49:35;;;;;;;;;;;19.50;60.10;;;;;;5072800;28;20032;-61
2022/07/06 09:52:03;;;;;;;1.00;0.95;;;19.40;60.20;;;;;;5073069;28;19951;-60
2022/07/06 09:54:29;;;;;;;1.10;1.00;;;19.40;60.20;;;;;;5071614;28;20031;-62
2022/07/06 09:56:56;;;;;;;1.20;1.10;;;19.40;60.20;;;;;;5072561;28;20062;-58
2022/07/06 09:59:24;;;;;;;1.20;1.10;;;19.30;60.10;;;;;;5076042;28;20047;-60
2022/07/06 10:01:55;;;;;;;1.20;1.10;;;19.40;60.30;;;;;;5076104;28;20031;-60
2022/07/06 10:04:22;;;;;;;1.23;1.13;;;19.30;60.20;;;;;;5077204;28;20032;-62
2022/07/06 10:06:48;;;;;;;1.30;1.20;;;19.30;60.30;;;;;;5074716;28;20096;-60
2022/07/06 10:09:15;;;;;;;1.03;0.93;;;19.30;60.30;;;;;;5074812;28;20036;-58
2022/07/06 10:12:03;;;;;;;1.15;1.05;;;19.30;60.30;;;;;;5071938;28;20033;-60
2022/07/06 10:14:33;;;;;;;1.40;1.30;;;19.30;60.40;;;;;;5069151;28;20067;-60
2022/07/06 10:17:01;;;;;;;1.20;1.10;;;19.20;60.30;;;;;;5075306;28;20040;-60
2022/07/06 10:19:27;;;;;;;;;;;19.20;60.40;;;;;;5083265;28;20017;-59
2022/07/06 10:21:53;;;;;;;1.20;1.10;;;19.20;60.50;;;;;;5084941;28;19916;-62
2022/07/06 10:24:20;;;;;;;1.10;1.00;;;19.10;60.50;;;;;;5079454;28;20033;-61
2022/07/06 10:26:46;;;;;;;1.20;1.10;;;19.10;60.50;;;;;;5081156;28;20088;-57
2022/07/06 10:29:12;;;;;;;1.20;1.10;;;19.10;60.50;;;;;;5079836;28;20783;-56
2022/07/06 10:31:40;;;;;;;1.40;1.30;;;19.10;60.60;;;;;;5080583;28;20115;-56
2022/07/06 10:34:09;;;;;;;1.20;1.10;;;19.10;60.50;;;;;;5079983;28;20048;-56
2022/07/06 10:36:42;;;;;;;1.10;1.00;;;19.10;60.50;;;;;;5082025;28;20562;-58
2022/07/06 10:41:53;;;;;;;1.20;1.10;;;19.10;60.50;;;;;;5075829;28;20036;-57
2022/07/06 10:44:22;;;;;;;0.95;0.85;;;19.10;60.50;;;;;;5077830;28;20528;-58
2022/07/06 10:46:58;;;;;;;1.20;1.10;;;19.10;60.50;;;;;;5079443;28;20187;-59
2022/07/06 10:49:25;;;;;;;0.93;0.93;;;19.10;60.60;;;;;;5073686;28;20093;-57
2022/07/06 10:51:52;;;;;;;1.20;1.10;;;19.00;60.90;;;;;;5073365;28;20028;-58
2022/07/06 10:54:19;;;;;;;1.30;1.20;;;19.00;61.40;;;;;;5072857;28;20040;-58
2022/07/06 10:56:50;;;;;;;1.35;1.25;;;19.00;62.00;;;;;;5072211;28;20058;-57
2022/07/06 10:59:17;;;;;;;1.60;1.30;;;18.90;62.30;;;;;;5070946;28;20025;-58
2022/07/06 11:02:09;;;;;;;1.25;1.15;;;18.90;62.40;;;;;;5072883;28;20051;-57
2022/07/06 11:04:35;;;;;;;1.20;1.10;;;18.90;62.10;;;;;;5064443;28;20028;-57
2022/07/06 11:07:09;;;;;;;1.33;1.20;;;18.90;61.90;;;;;;5072848;28;20037;-56
2022/07/06 11:09:36;;;;;;;1.00;1.00;;;18.90;62.00;;;;;;5072766;28;20094;-58
2022/07/06 11:12:14;;;;;;;1.25;1.15;;;18.90;62.30;;;;;;5075385;28;20036;-58
2022/07/06 11:14:40;;;;;;;1.40;1.30;;;18.90;62.70;;;;;;5071843;28;20025;-56
2022/07/06 11:17:09;;;;;;;1.52;1.10;;;18.90;63.00;;;;;;5073942;28;20455;-57
2022/07/06 11:19:35;;;;;;;1.33;1.23;;;18.90;63.10;;;;;;5074905;28;20043;-55
2022/07/06 11:22:06;;;;;;;1.17;1.08;;;18.90;62.70;;;;;;5080769;28;20025;-57
2022/07/06 11:24:33;;;;;;;1.50;1.40;;;18.90;62.50;;;;;;5079365;28;20025;-57
2022/07/06 11:27:00;;;;;;;1.20;1.10;;;18.90;62.60;;;;;;5081279;28;20035;-56
2022/07/06 11:29:27;;;;;;;1.30;1.20;;;18.90;62.90;;;;;;5080453;28;20036;-54
2022/07/06 11:31:58;;;;;;;1.33;1.23;;;18.90;63.20;;;;;;5078485;28;20032;-57
2022/07/06 11:34:29;;;;;;;1.50;1.40;;;18.90;63.40;;;;;;5076163;28;20036;-54
2022/07/06 11:36:57;;;;;;;1.50;1.27;;;18.90;63.80;;;;;;5077945;28;20089;-50
2022/07/06 11:39:26;;;;;;;1.55;1.20;;;18.90;63.90;;;;;;5080317;28;20046;-56
2022/07/06 11:41:52;;;;;;;1.35;1.25;;;19.00;63.90;;;;;;5079434;28;20054;-57
2022/07/06 11:44:18;;;;;;;1.30;1.20;;;19.00;63.70;;;;;;5072708;28;20044;-56
2022/07/06 11:46:44;;;;;;;1.35;1.25;;;19.00;63.40;;;;;;5079602;28;20070;-53
2022/07/06 11:49:10;;;;;;;1.42;1.33;;;19.00;63.40;;;;;;5077770;28;20055;-52
2022/07/06 11:51:40;;;;;;;1.40;1.30;;;19.00;63.70;;;;;;5078962;28;20036;-56
2022/07/06 11:54:14;;;;;;;1.63;1.15;;;19.00;77.60;;;;;;5079976;28;20110;-55
2022/07/06 11:57:00;;;;;;;1.85;1.27;;;19.10;78.10;;;;;;5080394;28;20025;-57
2022/07/06 11:59:34;;;;;;;1.48;1.38;;;19.00;64.40;;;;;;5077416;28;20032;-55
2022/07/06 12:02:16;;;;;;;1.23;1.13;;;19.00;64.60;;;;;;5080418;28;20025;-56
2022/07/06 12:04:44;;;;;;;1.48;1.38;;;19.10;64.90;;;;;;5077797;28;20032;-58
2022/07/06 12:07:13;;;;;;;1.40;1.30;;;19.10;65.40;;;;;;5076532;28;20471;-57
2022/07/06 12:09:40;;;;;;;2.50;1.52;;;19.10;64.50;;;;;;5078263;28;20444;-57
2022/07/06 12:12:08;;;;;;;1.48;1.38;;;19.10;64.10;;;;;;5059442;28;20051;-58
2022/07/06 12:14:35;;;;;;;1.40;1.30;;;19.10;64.80;;;;;;5068022;28;20033;-58
2022/07/06 12:17:04;;;;;;;1.58;1.48;;;19.10;64.20;;;;;;5078390;28;20029;-58
2022/07/06 12:19:31;;;;;;;2.63;1.23;;;19.10;64.40;;;;;;5078916;28;20040;-58
2022/07/06 12:21:57;;;;;;;1.40;1.30;;;19.10;64.60;;;;;;5082153;28;20035;-59
2022/07/06 12:24:28;;;;;;;1.30;1.20;;;19.10;64.80;;;;;;5078674;28;20024;-58
2022/07/06 12:26:54;;;;;;;1.50;1.40;;;19.20;68.30;;;;;;5084197;28;20043;-59
2022/07/06 12:29:21;;;;;;;1.40;1.30;;;19.20;75.30;;;;;;5082533;28;20020;-58
2022/07/06 12:31:51;;;;;;;1.40;1.30;;;19.20;83.10;;;;;;5082140;28;20028;-58
2022/07/06 12:34:18;;;;;;;1.50;1.40;;;19.20;74.20;;;;;;5081864;28;20028;-58
2022/07/06 12:36:52;;;;;;;1.25;1.15;;;19.20;77.60;;;;;;5080275;28;20122;-58
2022/07/06 12:39:23;;;;;;;1.60;1.50;;;19.30;72.50;;;;;;5082661;28;20523;-58
2022/07/06 12:41:51;;;;;;;1.40;1.30;;;19.30;76.50;;;;;;5083247;28;20016;-58
2022/07/06 12:44:19;;;;;;;1.42;1.17;;;19.30;73.50;;;;;;5083710;28;20096;-57
2022/07/06 12:46:45;;;;;;;2.30;1.33;;;19.30;81.60;;;;;;5084678;28;20040;-58
2022/07/06 12:49:20;;;;;;;1.70;1.60;;;19.30;91.50;;;;;;5083211;28;20032;-59
2022/07/06 12:52:14;;;;;;;1.60;1.50;;;19.30;94.00;;;;;;5084428;28;20752;-58